createdAt,value
2022-08-06T00:00:07.541Z,22.80
2022-08-06T00:02:31.087Z,22.80
2022-08-06T00:05:01.715Z,22.80
2022-08-06T00:07:45.370Z,22.90
2022-08-06T00:10:17.964Z,22.90
2022-08-06T00:12:48.622Z,22.90
2022-08-06T00:15:19.981Z,22.90
2022-08-06T00:18:07.803Z,22.90
2022-08-06T00:20:41.983Z,22.80
2022-08-06T00:23:17.096Z,22.80
2022-08-06T00:25:52.685Z,22.70
2022-08-06T00:28:31.591Z,22.70
2022-08-06T00:31:06.153Z,22.70
2022-08-06T00:33:43.896Z,22.70
2022-08-06T00:36:24.828Z,22.70
2022-08-06T00:38:55.462Z,22.70
2022-08-06T00:41:30.459Z,22.70
2022-08-06T00:44:12.348Z,22.70
2022-08-06T00:46:41.200Z,22.60
2022-08-06T00:49:10.985Z,22.60
2022-08-06T00:51:51.541Z,22.60
2022-08-06T00:54:28.547Z,22.50
2022-08-06T00:57:07.988Z,22.50
2022-08-06T00:59:43.037Z,22.40
2022-08-06T01:02:14.701Z,22.30
2022-08-06T01:04:43.636Z,22.30
2022-08-06T01:07:12.197Z,22.30
2022-08-06T01:09:57.171Z,22.20
2022-08-06T01:12:33.346Z,22.30
2022-08-06T01:15:05.282Z,22.20
2022-08-06T01:17:49.506Z,22.20
2022-08-06T01:22:01.097Z,22.30
2022-08-06T01:23:40.022Z,22.30
2022-08-06T01:26:28.946Z,22.40
2022-08-06T01:29:02.269Z,22.40
2022-08-06T01:31:38.747Z,22.40
2022-08-06T01:34:13.440Z,22.40
2022-08-06T01:36:48.507Z,22.40
2022-08-06T01:39:22.867Z,22.40
2022-08-06T01:42:10.424Z,22.40
2022-08-06T01:44:45.045Z,22.40
2022-08-06T01:47:19.961Z,22.40
2022-08-06T01:50:00.774Z,22.40
2022-08-06T01:52:37.253Z,22.40
2022-08-06T01:55:12.714Z,22.40
2022-08-06T01:58:08.537Z,22.30
2022-08-06T02:00:35.312Z,22.20
2022-08-06T02:03:10.152Z,22.20
2022-08-06T02:05:44.841Z,22.20
2022-08-06T02:08:37.304Z,22.20
2022-08-06T02:11:24.104Z,22.20
2022-08-06T02:14:01.438Z,22.10
2022-08-06T02:16:36.099Z,22.00
2022-08-06T02:19:15.621Z,22.00
2022-08-06T02:21:50.393Z,21.90
2022-08-06T02:24:23.658Z,22.00
2022-08-06T02:26:53.720Z,22.00
2022-08-06T02:29:23.086Z,22.00
2022-08-06T02:32:02.064Z,21.90
2022-08-06T02:34:31.415Z,22.00
2022-08-06T02:37:05.894Z,22.00
2022-08-06T02:39:41.178Z,21.90
2022-08-06T02:42:23.245Z,22.00
2022-08-06T02:45:00.619Z,22.00
2022-08-06T02:47:52.573Z,21.90
2022-08-06T02:50:36.725Z,21.90
2022-08-06T02:53:23.677Z,21.90
2022-08-06T02:55:57.454Z,22.00
2022-08-06T02:58:38.572Z,21.90
2022-08-06T03:01:11.764Z,21.90
2022-08-06T03:03:53.880Z,21.90
2022-08-06T03:06:30.649Z,21.90
2022-08-06T03:09:01.115Z,21.90
2022-08-06T03:11:33.407Z,21.90
2022-08-06T03:14:13.160Z,22.00
2022-08-06T03:16:53.363Z,22.00
2022-08-06T03:19:57.219Z,21.90
2022-08-06T03:22:36.230Z,21.90
2022-08-06T03:25:10.082Z,21.90
2022-08-06T03:27:43.346Z,21.80
2022-08-06T03:30:30.472Z,21.80
2022-08-06T03:33:07.489Z,21.70
2022-08-06T03:35:55.106Z,21.70
2022-08-06T03:38:29.089Z,21.80
2022-08-06T03:41:01.021Z,21.80
2022-08-06T03:43:55.839Z,21.90
2022-08-06T03:46:23.803Z,21.90
2022-08-06T03:48:56.634Z,22.00
2022-08-06T03:51:29.763Z,22.00
2022-08-06T03:54:30.379Z,22.00
2022-08-06T03:57:08.088Z,22.00
2022-08-06T03:59:44.150Z,22.10
2022-08-06T04:02:44.747Z,22.30
2022-08-06T04:05:17.258Z,22.40
2022-08-06T04:07:57.328Z,22.50
2022-08-06T04:10:33.904Z,22.70
2022-08-06T04:13:08.532Z,22.80
2022-08-06T04:15:56.627Z,22.90
2022-08-06T04:18:42.225Z,23.00
2022-08-06T04:22:58.180Z,23.10
2022-08-06T04:24:12.076Z,23.20
2022-08-06T04:26:42.216Z,23.20
2022-08-06T04:29:16.448Z,23.30
2022-08-06T04:32:12.711Z,23.40
2022-08-06T04:36:03.311Z,23.40
2022-08-06T04:37:26.046Z,23.40
2022-08-06T04:40:00.887Z,23.50
2022-08-06T04:42:29.686Z,23.50
2022-08-06T04:44:59.292Z,23.50
2022-08-06T04:47:41.769Z,23.60
2022-08-06T04:50:17.746Z,23.60
2022-08-06T04:52:52.322Z,23.60
2022-08-06T04:55:23.684Z,23.70
2022-08-06T04:57:56.336Z,23.70
2022-08-06T05:00:34.165Z,23.60
2022-08-06T05:03:15.345Z,23.60
2022-08-06T05:06:02.421Z,23.50
2022-08-06T05:08:39.400Z,23.50
2022-08-06T05:11:18.122Z,23.40
2022-08-06T05:13:48.710Z,23.40
2022-08-06T05:16:22.136Z,23.40
2022-08-06T05:19:19.656Z,23.40
2022-08-06T05:22:11.205Z,23.30
2022-08-06T05:25:00.849Z,23.30
2022-08-06T05:27:40.012Z,23.40
2022-08-06T05:30:17.716Z,23.40
2022-08-06T05:32:50.974Z,23.40
2022-08-06T05:35:22.906Z,23.40
2022-08-06T05:38:01.304Z,23.50
2022-08-06T05:40:53.686Z,23.50
2022-08-06T05:43:58.280Z,23.60
2022-08-06T05:46:17.781Z,23.70
2022-08-06T05:48:57.255Z,23.90
2022-08-06T05:51:45.835Z,24.10
2022-08-06T05:54:21.021Z,24.40
2022-08-06T05:56:53.745Z,24.80
2022-08-06T05:59:38.234Z,25.20
2022-08-06T06:02:19.216Z,25.60
2022-08-06T06:06:03.339Z,26.00
2022-08-06T06:08:08.122Z,26.30
2022-08-06T06:10:28.361Z,26.70
2022-08-06T06:12:57.343Z,27.20
2022-08-06T06:16:01.240Z,27.40
2022-08-06T06:18:34.023Z,27.50
2022-08-06T06:21:31.896Z,27.50
2022-08-06T06:24:08.404Z,27.40
2022-08-06T06:26:41.838Z,27.40
2022-08-06T06:29:15.745Z,27.50
2022-08-06T06:32:07.479Z,27.60
2022-08-06T06:34:48.600Z,27.70
2022-08-06T06:37:40.692Z,27.80
2022-08-06T06:40:21.246Z,27.80
2022-08-06T06:42:53.933Z,27.60
2022-08-06T06:46:10.088Z,27.70
2022-08-06T06:48:23.974Z,27.70
2022-08-06T06:51:01.596Z,27.70
2022-08-06T06:54:06.131Z,27.60
2022-08-06T06:56:32.192Z,27.60
2022-08-06T06:59:04.680Z,27.50
2022-08-06T07:01:42.299Z,27.50
2022-08-06T07:04:21.264Z,27.40
2022-08-06T07:06:57.684Z,27.50
2022-08-06T07:09:40.599Z,27.50
2022-08-06T07:12:25.352Z,27.70
2022-08-06T07:14:58.947Z,27.80
2022-08-06T07:17:46.795Z,27.80
2022-08-06T07:20:26.122Z,28.00
2022-08-06T07:24:08.595Z,28.10
2022-08-06T07:25:54.424Z,28.30
2022-08-06T07:28:28.092Z,28.40
2022-08-06T07:31:04.633Z,28.60
2022-08-06T07:33:42.865Z,28.80
2022-08-06T07:36:37.643Z,28.80
2022-08-06T07:39:14.462Z,28.60
2022-08-06T07:42:07.510Z,28.50
2022-08-06T07:44:54.859Z,28.40
2022-08-06T07:47:41.170Z,28.30
2022-08-06T07:50:18.545Z,28.20
2022-08-06T07:52:54.942Z,28.10
2022-08-06T07:55:31.450Z,28.00
2022-08-06T07:58:06.694Z,28.00
2022-08-06T08:00:39.809Z,27.90
2022-08-06T08:03:55.997Z,27.80
2022-08-06T08:06:25.567Z,27.80
2022-08-06T08:08:58.375Z,27.70
2022-08-06T08:11:37.613Z,27.70
2022-08-06T08:14:20.546Z,27.60
2022-08-06T08:16:51.697Z,27.50
2022-08-06T08:19:24.696Z,27.40
2022-08-06T08:21:57.457Z,27.20
2022-08-06T08:24:33.823Z,27.10
2022-08-06T08:27:21.856Z,26.90
2022-08-06T08:29:56.626Z,26.70
2022-08-06T08:32:26.880Z,26.40
2022-08-06T08:35:02.405Z,26.30
2022-08-06T08:37:32.749Z,26.00
2022-08-06T08:40:03.288Z,25.50
2022-08-06T08:42:38.595Z,25.30
2022-08-06T08:45:13.232Z,25.00
2022-08-06T08:47:53.715Z,24.80
2022-08-06T08:50:31.319Z,24.60
2022-08-06T08:53:04.454Z,24.30
2022-08-06T08:57:10.174Z,24.20
2022-08-06T08:58:43.771Z,23.90
2022-08-06T09:01:51.507Z,23.70
2022-08-06T09:04:07.036Z,23.50
2022-08-06T09:06:37.082Z,23.50
2022-08-06T09:09:06.861Z,23.40
2022-08-06T09:12:04.150Z,23.40
2022-08-06T09:14:28.234Z,23.40
2022-08-06T09:17:03.926Z,23.40
2022-08-06T09:19:37.432Z,23.30
2022-08-06T09:22:08.935Z,23.30
2022-08-06T09:24:39.244Z,23.30
2022-08-06T09:27:45.555Z,23.30
2022-08-06T09:30:11.581Z,23.30
2022-08-06T09:32:54.743Z,23.30
2022-08-06T09:35:44.537Z,23.40
2022-08-06T09:38:17.987Z,23.30
2022-08-06T09:41:15.267Z,23.30
2022-08-06T09:44:03.278Z,23.30
2022-08-06T09:46:43.985Z,23.30
2022-08-06T09:49:48.722Z,23.20
2022-08-06T09:52:17.342Z,23.30
2022-08-06T09:54:53.388Z,23.30
2022-08-06T09:57:33.178Z,23.30
2022-08-06T10:00:14.752Z,23.30
2022-08-06T10:02:50.625Z,23.40
2022-08-06T10:05:22.998Z,23.40
2022-08-06T10:08:08.185Z,23.40
2022-08-06T10:10:45.387Z,23.50
2022-08-06T10:13:20.600Z,23.50
2022-08-06T10:16:01.170Z,23.60
2022-08-06T10:18:55.088Z,23.70
2022-08-06T10:21:41.843Z,23.80
2022-08-06T10:24:14.513Z,23.80
2022-08-06T10:26:55.846Z,23.70
2022-08-06T10:29:25.929Z,23.70
2022-08-06T10:31:58.273Z,23.70
2022-08-06T10:34:31.259Z,23.70
2022-08-06T10:37:48.225Z,23.70
2022-08-06T10:40:07.633Z,23.70
2022-08-06T10:42:40.022Z,23.70
2022-08-06T10:45:13.222Z,23.70
2022-08-06T10:48:58.204Z,23.60
2022-08-06T10:50:44.587Z,23.60
2022-08-06T10:54:02.582Z,23.60
2022-08-06T10:56:13.085Z,23.70
2022-08-06T10:58:50.657Z,23.70
2022-08-06T11:01:36.725Z,23.70
2022-08-06T11:04:33.842Z,23.70
2022-08-06T11:08:14.449Z,23.60
2022-08-06T11:10:35.191Z,23.60
2022-08-06T11:13:14.444Z,23.70
2022-08-06T11:15:45.142Z,23.60
2022-08-06T11:18:16.199Z,23.60
2022-08-06T11:20:53.618Z,23.60
2022-08-06T11:23:58.364Z,23.70
2022-08-06T11:26:38.834Z,23.70
2022-08-06T11:29:15.760Z,23.70
2022-08-06T11:31:56.939Z,23.70
2022-08-06T11:34:51.323Z,23.80
2022-08-06T11:38:03.711Z,23.80
2022-08-06T11:40:59.802Z,23.90
2022-08-06T11:44:06.623Z,23.90
2022-08-06T11:46:39.366Z,24.00
2022-08-06T11:49:23.542Z,24.10
2022-08-06T11:52:06.496Z,24.20
2022-08-06T11:54:39.130Z,24.30
2022-08-06T11:57:42.103Z,24.30
2022-08-06T12:00:20.562Z,24.40
2022-08-06T12:02:59.549Z,24.50
2022-08-06T12:05:39.223Z,24.60
2022-08-06T12:08:42.600Z,24.60
2022-08-06T12:11:36.661Z,24.80
2022-08-06T12:14:33.861Z,24.90
2022-08-06T12:16:59.329Z,24.90
2022-08-06T12:19:28.118Z,25.00
2022-08-06T12:21:57.758Z,25.00
2022-08-06T12:24:45.426Z,25.10
2022-08-06T12:27:25.085Z,25.20
2022-08-06T12:29:59.466Z,25.30
2022-08-06T12:32:29.706Z,25.30
2022-08-06T12:35:01.339Z,25.40
2022-08-06T12:37:41.281Z,25.40
2022-08-06T12:40:28.880Z,25.50
2022-08-06T12:43:15.661Z,25.60
2022-08-06T12:46:06.891Z,25.60
2022-08-06T12:48:35.417Z,25.60
2022-08-06T12:51:11.659Z,25.60
2022-08-06T12:53:47.924Z,25.60
2022-08-06T12:56:29.362Z,25.60
2022-08-06T12:59:05.186Z,25.70
2022-08-06T13:02:07.684Z,25.70
2022-08-06T13:04:29.684Z,25.70
2022-08-06T13:07:02.943Z,25.70
2022-08-06T13:09:35.910Z,25.70
2022-08-06T13:12:19.935Z,25.60
2022-08-06T13:15:09.819Z,25.70
2022-08-06T13:18:03.206Z,25.60
2022-08-06T13:20:43.138Z,25.60
2022-08-06T13:23:22.557Z,25.50
2022-08-06T13:25:53.338Z,25.50
2022-08-06T13:28:29.372Z,25.50
2022-08-06T13:31:01.543Z,25.40
2022-08-06T13:33:32.092Z,25.30
2022-08-06T13:36:12.771Z,25.30
2022-08-06T13:38:42.552Z,25.20
2022-08-06T13:41:12.797Z,25.10
2022-08-06T13:43:50.749Z,25.10
2022-08-06T13:46:29.055Z,25.10
2022-08-06T13:49:02.035Z,25.10
2022-08-06T13:51:35.216Z,25.10
2022-08-06T13:54:13.991Z,25.10
2022-08-06T13:56:44.198Z,25.10
2022-08-06T13:59:19.078Z,25.10
2022-08-06T14:01:52.883Z,25.20
2022-08-06T14:04:25.413Z,25.30
2022-08-06T14:06:59.337Z,25.40
2022-08-06T14:09:58.256Z,25.50
2022-08-06T14:12:20.648Z,25.50
2022-08-06T14:14:50.914Z,25.60
2022-08-06T14:17:20.989Z,25.60
2022-08-06T14:20:17.688Z,25.60
2022-08-06T14:22:42.090Z,25.50
2022-08-06T14:25:12.018Z,25.50
2022-08-06T14:27:45.152Z,25.50
2022-08-06T14:30:25.680Z,25.40
2022-08-06T14:33:11.167Z,25.50
2022-08-06T14:35:50.920Z,25.50
2022-08-06T14:38:21.833Z,25.60
2022-08-06T14:41:51.227Z,25.60
2022-08-06T14:44:27.328Z,25.70
2022-08-06T14:46:56.069Z,25.70
2022-08-06T14:49:45.634Z,25.70
2022-08-06T14:52:24.074Z,25.70
2022-08-06T14:54:56.270Z,25.70
2022-08-06T14:58:03.495Z,25.60
2022-08-06T15:00:34.662Z,25.70
2022-08-06T15:03:07.896Z,25.70
2022-08-06T15:06:04.787Z,25.60
2022-08-06T15:08:32.985Z,25.60
2022-08-06T15:11:06.460Z,25.60
2022-08-06T15:13:42.882Z,25.60
2022-08-06T15:16:47.071Z,25.60
2022-08-06T15:19:20.724Z,25.60
2022-08-06T15:21:54.383Z,25.60
2022-08-06T15:24:25.217Z,25.60
2022-08-06T15:26:55.922Z,25.60
2022-08-06T15:29:25.703Z,25.60
2022-08-06T15:32:01.896Z,25.50
2022-08-06T15:34:31.388Z,25.50
2022-08-06T15:37:03.545Z,25.50
2022-08-06T15:39:51.506Z,25.50
2022-08-06T15:42:23.794Z,25.50
2022-08-06T15:44:53.285Z,25.60
2022-08-06T15:47:31.693Z,25.60
2022-08-06T15:50:04.346Z,25.70
2022-08-06T15:52:42.654Z,25.70
2022-08-06T15:55:16.220Z,25.70
2022-08-06T15:58:04.998Z,25.70
2022-08-06T16:00:36.599Z,25.60
2022-08-06T16:03:07.914Z,25.60
2022-08-06T16:06:09.625Z,25.50
2022-08-06T16:08:34.596Z,25.50
2022-08-06T16:11:09.655Z,25.50
2022-08-06T16:13:39.034Z,25.50
2022-08-06T16:16:08.315Z,25.50
2022-08-06T16:18:49.190Z,25.50
2022-08-06T16:21:23.014Z,25.50
2022-08-06T16:23:56.971Z,25.50
2022-08-06T16:26:41.875Z,25.50
2022-08-06T16:29:20.546Z,25.50
2022-08-06T16:31:53.773Z,25.50
2022-08-06T16:34:29.774Z,25.50
2022-08-06T16:37:00.251Z,25.40
2022-08-06T16:42:19.556Z,25.20
2022-08-06T16:45:01.184Z,25.20
2022-08-06T16:48:18.149Z,25.10
2022-08-06T16:50:26.213Z,25.10
2022-08-06T16:54:08.442Z,25.10
2022-08-06T16:56:01.311Z,25.00
2022-08-06T16:58:33.147Z,25.00
2022-08-06T17:02:15.617Z,25.00
2022-08-06T17:03:56.365Z,25.00
2022-08-06T17:06:29.551Z,25.00
2022-08-06T17:08:58.474Z,24.90
2022-08-06T17:11:52.094Z,24.90
2022-08-06T17:14:20.960Z,24.90
2022-08-06T17:16:50.580Z,24.80
2022-08-06T17:19:19.618Z,24.80
2022-08-06T17:21:58.491Z,24.80
2022-08-06T17:24:37.412Z,24.80
2022-08-06T17:27:10.257Z,24.80
2022-08-06T17:29:46.408Z,24.70
2022-08-06T17:32:30.165Z,24.70
2022-08-06T17:35:06.526Z,24.70
2022-08-06T17:37:51.499Z,24.70
2022-08-06T17:40:31.147Z,24.70
2022-08-06T17:43:12.945Z,24.60
2022-08-06T17:45:52.258Z,24.50
2022-08-06T17:48:32.529Z,24.50
2022-08-06T17:51:09.812Z,24.50
2022-08-06T17:53:51.896Z,24.50
2022-08-06T17:56:30.355Z,24.40
2022-08-06T17:59:16.863Z,24.40
2022-08-06T18:01:50.125Z,24.40
2022-08-06T18:04:21.868Z,24.30
2022-08-06T18:07:10.836Z,24.30
2022-08-06T18:10:08.593Z,24.30
2022-08-06T18:12:48.482Z,24.40
2022-08-06T18:15:19.887Z,24.30
2022-08-06T18:18:03.782Z,24.30
2022-08-06T18:20:38.239Z,24.30
2022-08-06T18:23:21.169Z,24.20
2022-08-06T18:25:56.096Z,24.20
2022-08-06T18:28:36.273Z,24.10
2022-08-06T18:31:11.214Z,24.10
2022-08-06T18:33:45.955Z,24.10
2022-08-06T18:36:16.919Z,24.00
2022-08-06T18:38:45.427Z,24.00
2022-08-06T18:41:16.689Z,24.00
2022-08-06T18:43:54.727Z,24.00
2022-08-06T18:46:57.214Z,24.00
2022-08-06T18:49:26.747Z,24.00
2022-08-06T18:52:16.642Z,24.00
2022-08-06T18:54:56.779Z,23.90
2022-08-06T18:57:37.883Z,23.90
2022-08-06T19:00:19.726Z,23.90
2022-08-06T19:02:51.060Z,23.90
2022-08-06T19:05:26.716Z,23.90
2022-08-06T19:07:58.485Z,23.80
2022-08-06T19:10:28.877Z,23.80
2022-08-06T19:12:57.685Z,23.80
2022-08-06T19:15:46.793Z,23.80
2022-08-06T19:18:17.951Z,23.80
2022-08-06T19:20:46.974Z,23.70
2022-08-06T19:24:00.513Z,23.70
2022-08-06T19:26:12.838Z,23.70
2022-08-06T19:28:49.055Z,23.70
2022-08-06T19:31:41.398Z,23.60
2022-08-06T19:34:14.367Z,23.60
2022-08-06T19:36:45.318Z,23.50
2022-08-06T19:39:54.097Z,23.50
2022-08-06T19:42:03.148Z,23.40
2022-08-06T19:45:04.463Z,23.40
2022-08-06T19:47:35.643Z,23.40
2022-08-06T19:50:12.394Z,23.30
2022-08-06T19:52:45.039Z,23.30
2022-08-06T19:56:08.215Z,23.30
2022-08-06T19:58:26.480Z,23.30
2022-08-06T20:01:04.131Z,23.20
2022-08-06T20:03:43.405Z,23.20
2022-08-06T20:06:29.850Z,23.20
2022-08-06T20:09:26.652Z,23.20
2022-08-06T20:12:04.142Z,23.20
2022-08-06T20:14:36.207Z,23.20
2022-08-06T20:17:04.825Z,23.10
2022-08-06T20:20:05.289Z,23.20
2022-08-06T20:22:23.399Z,23.10
2022-08-06T20:24:52.663Z,23.10
2022-08-06T20:27:38.445Z,23.10
2022-08-06T20:30:11.161Z,23.10
2022-08-06T20:32:41.164Z,23.00
2022-08-06T20:35:13.453Z,23.00
2022-08-06T20:37:52.332Z,22.90
2022-08-06T20:40:31.618Z,22.90
2022-08-06T20:44:04.680Z,22.90
2022-08-06T20:46:02.716Z,22.80
2022-08-06T20:48:31.977Z,22.80
2022-08-06T20:51:00.744Z,22.70
2022-08-06T20:53:32.939Z,22.70
2022-08-06T20:56:03.237Z,22.70
2022-08-06T20:58:32.620Z,22.80
2022-08-06T21:01:02.158Z,22.70
2022-08-06T21:05:13.528Z,22.70
2022-08-06T21:06:22.717Z,22.70
2022-08-06T21:08:52.987Z,22.60
2022-08-06T21:11:22.130Z,22.70
2022-08-06T21:13:59.601Z,22.70
2022-08-06T21:16:34.920Z,22.70
2022-08-06T21:19:07.076Z,22.70
2022-08-06T21:21:38.142Z,22.70
2022-08-06T21:24:09.534Z,22.60
2022-08-06T21:26:38.277Z,22.60
2022-08-06T21:29:41.968Z,22.60
2022-08-06T21:31:58.571Z,22.60
2022-08-06T21:34:27.962Z,22.70
2022-08-06T21:36:57.387Z,22.70
2022-08-06T21:39:52.210Z,22.70
2022-08-06T21:42:17.832Z,22.60
2022-08-06T21:44:47.875Z,22.60
2022-08-06T21:47:19.375Z,22.50
2022-08-06T21:52:27.553Z,22.50
2022-08-06T21:55:05.487Z,22.50
2022-08-06T21:57:48.144Z,22.40
2022-08-06T22:00:34.158Z,22.40
2022-08-06T22:03:07.048Z,22.40
2022-08-06T22:06:20.618Z,22.40
2022-08-06T22:08:34.832Z,22.40
2022-08-06T22:12:36.510Z,22.40
2022-08-06T22:13:58.686Z,22.40
2022-08-06T22:16:33.486Z,22.40
2022-08-06T22:19:03.238Z,22.40
2022-08-06T22:21:49.860Z,22.40
2022-08-06T22:24:22.892Z,22.40
2022-08-06T22:26:56.332Z,22.40
2022-08-06T22:29:27.828Z,22.40
2022-08-06T22:32:00.428Z,22.40
2022-08-06T22:34:36.149Z,22.40
2022-08-06T22:37:14.524Z,22.40
2022-08-06T22:39:47.108Z,22.20
2022-08-06T22:42:56.307Z,22.20
2022-08-06T22:45:47.463Z,22.20
2022-08-06T22:48:07.745Z,22.10
2022-08-06T22:50:37.183Z,22.00
2022-08-06T22:54:26.486Z,22.00
2022-08-06T22:55:56.765Z,22.00
2022-08-06T22:59:03.446Z,22.00
2022-08-06T23:02:03.678Z,22.00
2022-08-06T23:04:03.098Z,22.00
2022-08-06T23:06:32.238Z,22.00
2022-08-06T23:09:00.935Z,22.00
2022-08-06T23:11:32.638Z,21.90
2022-08-06T23:14:01.157Z,21.90
2022-08-06T23:16:32.479Z,21.90
2022-08-06T23:19:01.271Z,21.80
2022-08-06T23:22:00.122Z,21.80
2022-08-06T23:24:32.996Z,21.70
2022-08-06T23:27:16.429Z,21.80
2022-08-06T23:30:09.742Z,21.80
2022-08-06T23:32:41.008Z,21.80
2022-08-06T23:35:35.083Z,21.80
2022-08-06T23:38:05.748Z,21.90
2022-08-06T23:40:50.153Z,21.90
2022-08-06T23:43:22.591Z,21.80
2022-08-06T23:45:51.664Z,21.80
2022-08-06T23:48:21.397Z,21.70
2022-08-06T23:50:54.418Z,21.80
2022-08-06T23:54:07.431Z,21.80
2022-08-06T23:56:13.986Z,21.70
2022-08-06T23:58:49.010Z,21.70
